sensor_id;sensor_type;location;lat;lon;timestamp;pressure;altitude;pressure_sealevel;temperature;humidity
25560;BME280;13450;49.374;8.584;2023-02-18T00:01:49;101447.41;;;11.03;100.00
25560;BME280;13450;49.374;8.584;2023-02-18T00:04:15;101439.19;;;11.04;100.00
25560;BME280;13450;49.374;8.584;2023-02-18T00:06:41;101435.50;;;11.05;100.00
25560;BME280;13450;49.374;8.584;2023-02-18T00:09:06;101434.84;;;11.03;100.00
25560;BME280;13450;49.374;8.584;2023-02-18T00:11:34;101421.31;;;11.05;100.00
25560;BME280;13450;49.374;8.584;2023-02-18T00:14:01;101432.69;;;11.07;100.00
25560;BME280;13450;49.374;8.584;2023-02-18T00:16:30;101429.19;;;11.06;100.00
25560;BME280;13450;49.374;8.584;2023-02-18T00:19:00;101421.16;;;11.06;100.00
25560;BME280;13450;49.374;8.584;2023-02-18T00:21:28;101432.84;;;11.05;100.00
25560;BME280;13450;49.374;8.584;2023-02-18T00:23:58;101442.56;;;11.06;100.00
25560;BME280;13450;49.374;8.584;2023-02-18T00:26:23;101428.16;;;11.07;100.00
25560;BME280;13450;49.374;8.584;2023-02-18T00:28:49;101433.38;;;11.09;100.00
25560;BME280;13450;49.374;8.584;2023-02-18T00:31:19;101426.16;;;11.09;100.00
25560;BME280;13450;49.374;8.584;2023-02-18T00:33:45;101429.84;;;11.08;100.00
25560;BME280;13450;49.374;8.584;2023-02-18T00:36:15;101429.84;;;11.08;100.00
25560;BME280;13450;49.374;8.584;2023-02-18T00:38:49;101422.97;;;11.06;100.00
25560;BME280;13450;49.374;8.584;2023-02-18T00:41:16;101414.78;;;11.07;100.00
25560;BME280;13450;49.374;8.584;2023-02-18T00:43:42;101410.44;;;11.06;100.00
25560;BME280;13450;49.374;8.584;2023-02-18T00:46:08;101422.81;;;11.07;100.00
25560;BME280;13450;49.374;8.584;2023-02-18T00:48:34;101411.25;;;11.07;100.00
25560;BME280;13450;49.374;8.584;2023-02-18T00:51:01;101419.28;;;11.07;100.00
25560;BME280;13450;49.374;8.584;2023-02-18T00:53:28;101422.81;;;11.07;100.00
25560;BME280;13450;49.374;8.584;2023-02-18T00:55:54;101420.13;;;11.07;100.00
25560;BME280;13450;49.374;8.584;2023-02-18T00:58:20;101411.09;;;11.08;100.00
25560;BME280;13450;49.374;8.584;2023-02-18T01:00:49;101419.97;;;11.09;100.00
25560;BME280;13450;49.374;8.584;2023-02-18T01:03:16;101423.16;;;11.12;100.00
25560;BME280;13450;49.374;8.584;2023-02-18T01:05:44;101409.75;;;11.12;100.00
25560;BME280;13450;49.374;8.584;2023-02-18T01:08:14;101412.59;;;11.11;100.00
25560;BME280;13450;49.374;8.584;2023-02-18T01:10:44;101413.44;;;11.11;100.00
25560;BME280;13450;49.374;8.584;2023-02-18T01:13:13;101414.47;;;11.10;100.00
25560;BME280;13450;49.374;8.584;2023-02-18T01:15:39;101404.56;;;11.11;100.00
25560;BME280;13450;49.374;8.584;2023-02-18T01:18:05;101408.09;;;11.11;100.00
25560;BME280;13450;49.374;8.584;2023-02-18T01:20:44;101406.91;;;11.14;100.00
25560;BME280;13450;49.374;8.584;2023-02-18T01:23:13;101405.41;;;11.11;100.00
25560;BME280;13450;49.374;8.584;2023-02-18T01:25:39;101402.72;;;11.11;100.00
25560;BME280;13450;49.374;8.584;2023-02-18T01:28:07;101413.94;;;11.15;100.00
25560;BME280;13450;49.374;8.584;2023-02-18T01:33:09;101411.25;;;11.15;100.00
25560;BME280;13450;49.374;8.584;2023-02-18T01:35:38;101414.78;;;11.16;100.00
25560;BME280;13450;49.374;8.584;2023-02-18T01:38:09;101414.97;;;11.14;100.00
25560;BME280;13450;49.374;8.584;2023-02-18T01:40:36;101413.44;;;11.11;100.00
25560;BME280;13450;49.374;8.584;2023-02-18T01:43:09;101411.94;;;11.09;100.00
25560;BME280;13450;49.374;8.584;2023-02-18T01:54:15;101409.25;;;11.09;100.00
25560;BME280;13450;49.374;8.584;2023-02-18T01:57:05;101403.91;;;11.09;100.00
25560;BME280;13450;49.374;8.584;2023-02-18T01:59:40;101388.84;;;11.08;100.00
25560;BME280;13450;49.374;8.584;2023-02-18T02:02:12;101391.53;;;11.08;100.00
25560;BME280;13450;49.374;8.584;2023-02-18T02:04:38;101393.50;;;11.06;100.00
25560;BME280;13450;49.374;8.584;2023-02-18T02:07:04;101400.69;;;11.05;100.00
25560;BME280;13450;49.374;8.584;2023-02-18T02:09:33;101392.00;;;11.03;100.00
25560;BME280;13450;49.374;8.584;2023-02-18T02:23:33;101379.63;;;11.02;100.00
25560;BME280;13450;49.374;8.584;2023-02-18T02:26:37;101378.59;;;11.03;100.00
25560;BME280;13450;49.374;8.584;2023-02-18T02:34:51;101375.09;;;11.03;100.00
25560;BME280;13450;49.374;8.584;2023-02-18T02:48:53;101351.50;;;11.06;100.00
25560;BME280;13450;49.374;8.584;2023-02-18T02:51:53;101330.72;;;11.08;100.00
25560;BME280;13450;49.374;8.584;2023-02-18T02:54:27;101329.91;;;11.08;100.00
25560;BME280;13450;49.374;8.584;2023-02-18T02:59:48;101326.38;;;11.07;100.00
25560;BME280;13450;49.374;8.584;2023-02-18T03:09:27;101338.09;;;11.06;100.00
25560;BME280;13450;49.374;8.584;2023-02-18T03:12:04;101333.41;;;11.08;100.00
25560;BME280;13450;49.374;8.584;2023-02-18T03:17:35;101319.00;;;11.09;100.00
25560;BME280;13450;49.374;8.584;2023-02-18T03:20:08;101329.72;;;11.09;100.00
25560;BME280;13450;49.374;8.584;2023-02-18T03:22:45;101324.38;;;11.09;100.00
25560;BME280;13450;49.374;8.584;2023-02-18T03:25:13;101330.91;;;11.07;100.00
25560;BME280;13450;49.374;8.584;2023-02-18T03:27:46;101324.38;;;11.09;100.00
25560;BME280;13450;49.374;8.584;2023-02-18T03:30:20;101320.88;;;11.09;100.00
25560;BME280;13450;49.374;8.584;2023-02-18T03:32:48;101323.53;;;11.09;100.00
25560;BME280;13450;49.374;8.584;2023-02-18T03:35:17;101319.19;;;11.08;100.00
25560;BME280;13450;49.374;8.584;2023-02-18T03:37:50;101311.16;;;11.08;100.00
25560;BME280;13450;49.374;8.584;2023-02-18T03:40:17;101317.34;;;11.08;100.00
25560;BME280;13450;49.374;8.584;2023-02-18T03:42:44;101318.19;;;11.09;100.00
25560;BME280;13450;49.374;8.584;2023-02-18T03:45:10;101315.50;;;11.09;100.00
25560;BME280;13450;49.374;8.584;2023-02-18T03:47:39;101317.34;;;11.08;100.00
25560;BME280;13450;49.374;8.584;2023-02-18T03:50:06;101319.84;;;11.10;100.00
25560;BME280;13450;49.374;8.584;2023-02-18T03:52:35;101311.97;;;11.08;100.00
25560;BME280;13450;49.374;8.584;2023-02-18T03:55:04;101322.69;;;11.08;100.00
25560;BME280;13450;49.374;8.584;2023-02-18T03:57:30;101318.19;;;11.09;100.00
25560;BME280;13450;49.374;8.584;2023-02-18T03:59:58;101327.88;;;11.10;100.00
25560;BME280;13450;49.374;8.584;2023-02-18T04:02:27;101321.03;;;11.07;100.00
25560;BME280;13450;49.374;8.584;2023-02-18T04:04:52;101323.72;;;11.07;100.00
25560;BME280;13450;49.374;8.584;2023-02-18T04:07:18;101315.66;;;11.07;100.00
25560;BME280;13450;49.374;8.584;2023-02-18T04:09:47;101317.66;;;11.05;100.00
25560;BME280;13450;49.374;8.584;2023-02-18T04:12:12;101320.69;;;11.02;100.00
25560;BME280;13450;49.374;8.584;2023-02-18T04:14:40;101326.72;;;11.04;100.00
25560;BME280;13450;49.374;8.584;2023-02-18T04:17:09;101333.06;;;11.03;100.00
25560;BME280;13450;49.374;8.584;2023-02-18T04:19:35;101337.41;;;11.04;100.00
25560;BME280;13450;49.374;8.584;2023-02-18T04:22:01;101335.75;;;11.03;100.00
25560;BME280;13450;49.374;8.584;2023-02-18T04:24:27;101334.09;;;11.02;100.00
25560;BME280;13450;49.374;8.584;2023-02-18T04:26:53;101345.81;;;11.01;100.00
25560;BME280;13450;49.374;8.584;2023-02-18T04:29:27;101343.78;;;11.03;100.00
25560;BME280;13450;49.374;8.584;2023-02-18T04:32:02;101339.44;;;11.02;100.00
25560;BME280;13450;49.374;8.584;2023-02-18T04:34:30;101327.06;;;11.01;100.00
25560;BME280;13450;49.374;8.584;2023-02-18T04:36:56;101329.75;;;11.01;100.00
25560;BME280;13450;49.374;8.584;2023-02-18T04:39:24;101334.09;;;11.02;100.00
25560;BME280;13450;49.374;8.584;2023-02-18T04:41:50;101340.25;;;11.03;100.00
25560;BME280;13450;49.374;8.584;2023-02-18T04:44:17;101326.53;;;11.06;100.00
25560;BME280;13450;49.374;8.584;2023-02-18T04:46:42;101332.59;;;11.08;100.00
25560;BME280;13450;49.374;8.584;2023-02-18T04:49:07;101329.72;;;11.09;100.00
25560;BME280;13450;49.374;8.584;2023-02-18T04:51:33;101325.06;;;11.11;100.00
25560;BME280;13450;49.374;8.584;2023-02-18T04:53:58;101328.22;;;11.15;100.00
25560;BME280;13450;49.374;8.584;2023-02-18T04:56:24;101318.53;;;11.14;100.00
25560;BME280;13450;49.374;8.584;2023-02-18T04:58:49;101329.06;;;11.16;100.00
25560;BME280;13450;49.374;8.584;2023-02-18T05:01:14;101321.03;;;11.16;100.00
25560;BME280;13450;49.374;8.584;2023-02-18T05:03:40;101326.22;;;11.17;100.00
25560;BME280;13450;49.374;8.584;2023-02-18T05:06:09;101323.72;;;11.16;100.00
25560;BME280;13450;49.374;8.584;2023-02-18T05:08:35;101315.00;;;11.14;100.00
25560;BME280;13450;49.374;8.584;2023-02-18T05:11:04;101330.25;;;11.13;100.00
25560;BME280;13450;49.374;8.584;2023-02-18T05:13:30;101318.84;;;11.11;100.00
25560;BME280;13450;49.374;8.584;2023-02-18T05:15:55;101330.91;;;11.07;100.00
25560;BME280;13450;49.374;8.584;2023-02-18T05:18:21;101324.72;;;11.06;100.00
25560;BME280;13450;49.374;8.584;2023-02-18T05:20:47;101319.38;;;11.06;100.00
25560;BME280;13450;49.374;8.584;2023-02-18T05:23:15;101317.00;;;11.03;100.00
25560;BME280;13450;49.374;8.584;2023-02-18T05:26:01;101311.00;;;11.01;100.00
25560;BME280;13450;49.374;8.584;2023-02-18T05:34:50;101313.16;;;10.97;100.00
25560;BME280;13450;49.374;8.584;2023-02-18T05:37:19;101302.59;;;10.96;100.00
25560;BME280;13450;49.374;8.584;2023-02-18T05:39:46;101301.94;;;10.94;100.00
25560;BME280;13450;49.374;8.584;2023-02-18T05:42:18;101301.25;;;10.92;100.00
25560;BME280;13450;49.374;8.584;2023-02-18T05:44:45;101306.59;;;10.92;100.00
25560;BME280;13450;49.374;8.584;2023-02-18T05:47:11;101307.28;;;10.94;100.00
25560;BME280;13450;49.374;8.584;2023-02-18T05:49:44;101313.66;;;10.93;100.00
25560;BME280;13450;49.374;8.584;2023-02-18T05:52:10;101314.63;;;10.92;100.00
25560;BME280;13450;49.374;8.584;2023-02-18T05:54:38;101317.31;;;10.92;100.00
25560;BME280;13450;49.374;8.584;2023-02-18T05:57:04;101321.00;;;10.91;100.00
25560;BME280;13450;49.374;8.584;2023-02-18T06:02:15;101306.81;;;10.90;100.00
25560;BME280;13450;49.374;8.584;2023-02-18T06:04:43;101304.59;;;10.85;100.00
25560;BME280;13450;49.374;8.584;2023-02-18T06:07:09;101312.63;;;10.85;100.00
25560;BME280;13450;49.374;8.584;2023-02-18T06:09:37;101304.94;;;10.82;100.00
25560;BME280;13450;49.374;8.584;2023-02-18T06:12:07;101309.31;;;10.83;100.00
25560;BME280;13450;49.374;8.584;2023-02-18T06:14:32;101304.09;;;10.82;100.00
25560;BME280;13450;49.374;8.584;2023-02-18T06:17:01;101290.72;;;10.82;100.00
25560;BME280;13450;49.374;8.584;2023-02-18T06:19:26;101300.59;;;10.81;100.00
25560;BME280;13450;49.374;8.584;2023-02-18T06:21:54;101295.56;;;10.78;100.00
25560;BME280;13450;49.374;8.584;2023-02-18T06:24:20;101291.38;;;10.76;100.00
25560;BME280;13450;49.374;8.584;2023-02-18T06:26:46;101294.22;;;10.74;100.00
25560;BME280;13450;49.374;8.584;2023-02-18T06:29:11;101290.88;;;10.72;100.00
25560;BME280;13450;49.374;8.584;2023-02-18T06:31:40;101288.34;;;10.70;100.00
25560;BME280;13450;49.374;8.584;2023-02-18T06:34:07;101282.34;;;10.68;100.00
25560;BME280;13450;49.374;8.584;2023-02-18T06:36:32;101289.69;;;10.66;100.00
25560;BME280;13450;49.374;8.584;2023-02-18T06:38:58;101295.22;;;10.65;100.00
25560;BME280;13450;49.374;8.584;2023-02-18T06:41:24;101292.72;;;10.63;100.00
25560;BME280;13450;49.374;8.584;2023-02-18T06:43:50;101288.53;;;10.61;100.00
25560;BME280;13450;49.374;8.584;2023-02-18T06:46:16;101281.47;;;10.59;100.00
25560;BME280;13450;49.374;8.584;2023-02-18T06:48:45;101279.81;;;10.58;100.00
25560;BME280;13450;49.374;8.584;2023-02-18T06:51:13;101281.47;;;10.59;100.00
25560;BME280;13450;49.374;8.584;2023-02-18T06:53:51;101265.41;;;10.59;100.00
25560;BME280;13450;49.374;8.584;2023-02-18T06:56:17;101266.25;;;10.60;100.00
25560;BME280;13450;49.374;8.584;2023-02-18T06:58:42;101265.41;;;10.59;100.00
25560;BME280;13450;49.374;8.584;2023-02-18T07:01:09;101262.75;;;10.59;100.00
25560;BME280;13450;49.374;8.584;2023-02-18T07:03:35;101265.41;;;10.59;100.00
25560;BME280;13450;49.374;8.584;2023-02-18T07:06:00;101262.56;;;10.61;100.00
25560;BME280;13450;49.374;8.584;2023-02-18T07:08:25;101261.41;;;10.64;100.00
25560;BME280;13450;49.374;8.584;2023-02-18T07:10:52;101257.91;;;10.63;100.00
25560;BME280;13450;49.374;8.584;2023-02-18T07:13:17;101264.94;;;10.64;100.00
25560;BME280;13450;49.374;8.584;2023-02-18T07:15:45;101264.78;;;10.66;100.00
25560;BME280;13450;49.374;8.584;2023-02-18T07:18:11;101264.09;;;10.64;100.00
25560;BME280;13450;49.374;8.584;2023-02-18T07:20:37;101271.13;;;10.65;100.00
25560;BME280;13450;49.374;8.584;2023-02-18T07:23:02;101259.41;;;10.66;100.00
25560;BME280;13450;49.374;8.584;2023-02-18T07:25:28;101254.88;;;10.66;100.00
25560;BME280;13450;49.374;8.584;2023-02-18T07:27:54;101261.94;;;10.67;100.00
25560;BME280;13450;49.374;8.584;2023-02-18T07:30:23;101259.06;;;10.69;100.00
25560;BME280;13450;49.374;8.584;2023-02-18T07:32:50;101244.69;;;10.70;100.00
25560;BME280;13450;49.374;8.584;2023-02-18T07:35:18;101257.06;;;10.71;100.00
25560;BME280;13450;49.374;8.584;2023-02-18T07:37:47;101242.69;;;10.72;100.00
25560;BME280;13450;49.374;8.584;2023-02-18T07:40:25;101256.41;;;10.77;100.00
25560;BME280;13450;49.374;8.584;2023-02-18T07:42:50;101249.88;;;10.80;100.00
25560;BME280;13450;49.374;8.584;2023-02-18T07:45:18;101246.72;;;10.84;100.00
25560;BME280;13450;49.374;8.584;2023-02-18T07:47:48;101231.13;;;10.88;100.00
25560;BME280;13450;49.374;8.584;2023-02-18T07:50:14;101231.63;;;10.92;100.00
25560;BME280;13450;49.374;8.584;2023-02-18T07:52:42;101227.59;;;10.96;100.00
25560;BME280;13450;49.374;8.584;2023-02-18T07:55:07;101232.47;;;11.01;100.00
25560;BME280;13450;49.374;8.584;2023-02-18T07:57:33;101235.66;;;11.04;100.00
25560;BME280;13450;49.374;8.584;2023-02-18T08:00:21;101236.16;;;11.08;100.00
25560;BME280;13450;49.374;8.584;2023-02-18T08:02:46;101220.59;;;11.11;100.00
25560;BME280;13450;49.374;8.584;2023-02-18T08:05:12;101237.63;;;11.19;100.00
25560;BME280;13450;49.374;8.584;2023-02-18T08:07:38;101227.06;;;11.25;100.00
25560;BME280;13450;49.374;8.584;2023-02-18T08:10:04;101231.75;;;11.32;100.00
25560;BME280;13450;49.374;8.584;2023-02-18T08:12:30;101228.56;;;11.36;100.00
25560;BME280;13450;49.374;8.584;2023-02-18T08:14:58;101231.59;;;11.42;100.00
25560;BME280;13450;49.374;8.584;2023-02-18T08:17:27;101232.88;;;11.46;100.00
25560;BME280;13450;49.374;8.584;2023-02-18T08:19:53;101234.59;;;11.47;100.00
25560;BME280;13450;49.374;8.584;2023-02-18T08:22:21;101230.56;;;11.51;100.00
25560;BME280;13450;49.374;8.584;2023-02-18T08:24:52;101226.84;;;11.52;100.00
25560;BME280;13450;49.374;8.584;2023-02-18T08:27:18;101230.19;;;11.54;100.00
25560;BME280;13450;49.374;8.584;2023-02-18T08:29:46;101230.88;;;11.56;100.00
25560;BME280;13450;49.374;8.584;2023-02-18T08:32:13;101233.19;;;11.59;100.00
25560;BME280;13450;49.374;8.584;2023-02-18T08:34:41;101219.44;;;11.62;100.00
25560;BME280;13450;49.374;8.584;2023-02-18T08:39:42;101217.38;;;11.73;100.00
25560;BME280;13450;49.374;8.584;2023-02-18T08:42:07;101218.72;;;11.77;100.00
25560;BME280;13450;49.374;8.584;2023-02-18T08:44:33;101217.03;;;11.84;100.00
25560;BME280;13450;49.374;8.584;2023-02-18T08:49:34;101213.63;;;11.90;100.00
25560;BME280;13450;49.374;8.584;2023-02-18T08:54:39;101203.88;;;11.98;100.00
25560;BME280;13450;49.374;8.584;2023-02-18T08:57:06;101211.59;;;12.01;100.00
25560;BME280;13450;49.374;8.584;2023-02-18T09:07:17;101190.44;;;12.06;100.00
25560;BME280;13450;49.374;8.584;2023-02-18T09:14:55;101210.72;;;12.09;100.00
25560;BME280;13450;49.374;8.584;2023-02-18T09:22:35;101196.91;;;12.20;100.00
25560;BME280;13450;49.374;8.584;2023-02-18T09:25:00;101204.78;;;12.22;100.00
25560;BME280;13450;49.374;8.584;2023-02-18T09:30:03;101213.13;;;12.27;100.00
25560;BME280;13450;49.374;8.584;2023-02-18T09:35:04;101211.75;;;12.31;100.00
25560;BME280;13450;49.374;8.584;2023-02-18T09:42:43;101224.47;;;12.37;100.00
25560;BME280;13450;49.374;8.584;2023-02-18T09:45:39;101207.19;;;12.40;100.00
25560;BME280;13450;49.374;8.584;2023-02-18T09:48:28;101198.22;;;12.48;100.00
25560;BME280;13450;49.374;8.584;2023-02-18T09:50:59;101208.63;;;12.51;100.00
25560;BME280;13450;49.374;8.584;2023-02-18T10:05:29;101208.41;;;12.76;100.00
25560;BME280;13450;49.374;8.584;2023-02-18T10:08:00;101204.91;;;12.75;100.00
25560;BME280;13450;49.374;8.584;2023-02-18T10:10:35;101220.16;;;12.75;100.00
25560;BME280;13450;49.374;8.584;2023-02-18T10:13:05;101213.47;;;12.71;100.00
25560;BME280;13450;49.374;8.584;2023-02-18T10:18:31;101205.44;;;12.71;100.00
25560;BME280;13450;49.374;8.584;2023-02-18T10:26:20;101208.13;;;12.71;100.00
25560;BME280;13450;49.374;8.584;2023-02-18T10:28:48;101206.47;;;12.69;100.00
25560;BME280;13450;49.374;8.584;2023-02-18T10:31:36;101213.84;;;12.67;100.00
25560;BME280;13450;49.374;8.584;2023-02-18T10:34:39;101205.25;;;12.72;100.00
25560;BME280;13450;49.374;8.584;2023-02-18T10:45:18;101199.47;;;12.84;100.00
25560;BME280;13450;49.374;8.584;2023-02-18T10:48:18;101215.88;;;12.89;100.00
25560;BME280;13450;49.374;8.584;2023-02-18T10:50:54;101203.91;;;12.91;100.00
25560;BME280;13450;49.374;8.584;2023-02-18T10:53:33;101204.56;;;12.93;100.00
25560;BME280;13450;49.374;8.584;2023-02-18T10:55:59;101213.47;;;12.94;100.00
25560;BME280;13450;49.374;8.584;2023-02-18T10:58:46;101198.72;;;12.90;100.00
25560;BME280;13450;49.374;8.584;2023-02-18T11:01:18;101204.28;;;12.88;100.00
25560;BME280;13450;49.374;8.584;2023-02-18T11:03:46;101201.94;;;12.85;100.00
25560;BME280;13450;49.374;8.584;2023-02-18T11:06:40;101210.84;;;12.86;100.00
25560;BME280;13450;49.374;8.584;2023-02-18T11:12:02;101217.41;;;12.83;100.00
25560;BME280;13450;49.374;8.584;2023-02-18T11:15:04;101215.38;;;12.85;100.00
25560;BME280;13450;49.374;8.584;2023-02-18T11:17:42;101208.34;;;12.84;100.00
25560;BME280;13450;49.374;8.584;2023-02-18T11:20:34;101205.19;;;12.80;100.00
25560;BME280;13450;49.374;8.584;2023-02-18T11:25:38;101209.44;;;12.75;100.00
25560;BME280;13450;49.374;8.584;2023-02-18T11:33:33;101204.78;;;12.68;100.00
25560;BME280;13450;49.374;8.584;2023-02-18T11:36:08;101196.56;;;12.70;100.00
25560;BME280;13450;49.374;8.584;2023-02-18T11:41:39;101208.41;;;12.76;100.00
25560;BME280;13450;49.374;8.584;2023-02-18T11:44:56;101192.13;;;12.77;100.00
25560;BME280;13450;49.374;8.584;2023-02-18T11:47:36;101191.50;;;12.90;100.00
25560;BME280;13450;49.374;8.584;2023-02-18T11:52:40;101188.91;;;12.82;100.00
25560;BME280;13450;49.374;8.584;2023-02-18T11:55:22;101189.19;;;12.87;100.00
25560;BME280;13450;49.374;8.584;2023-02-18T11:57:54;101183.63;;;12.89;100.00
25560;BME280;13450;49.374;8.584;2023-02-18T12:00:39;101171.69;;;12.91;100.00
25560;BME280;13450;49.374;8.584;2023-02-18T12:05:42;101170.41;;;13.02;100.00
25560;BME280;13450;49.374;8.584;2023-02-18T12:08:14;101172.00;;;13.12;100.00
25560;BME280;13450;49.374;8.584;2023-02-18T12:10:57;101169.66;;;13.24;100.00
25560;BME280;13450;49.374;8.584;2023-02-18T12:13:27;101162.25;;;13.26;100.00
25560;BME280;13450;49.374;8.584;2023-02-18T12:19:01;101163.09;;;13.41;100.00
25560;BME280;13450;49.374;8.584;2023-02-18T12:21:38;101168.59;;;13.48;100.00
25560;BME280;13450;49.374;8.584;2023-02-18T12:35:33;101144.22;;;16.00;100.00
25560;BME280;13450;49.374;8.584;2023-02-18T12:52:41;101115.38;;;17.61;85.84
25560;BME280;13450;49.374;8.584;2023-02-18T12:57:57;101130.56;;;16.76;100.00
25560;BME280;13450;49.374;8.584;2023-02-18T13:14:00;101122.56;;;15.80;100.00
25560;BME280;13450;49.374;8.584;2023-02-18T13:16:32;101110.53;;;15.27;100.00
25560;BME280;13450;49.374;8.584;2023-02-18T13:19:10;101104.81;;;15.01;100.00
25560;BME280;13450;49.374;8.584;2023-02-18T13:21:38;101089.13;;;15.12;100.00
25560;BME280;13450;49.374;8.584;2023-02-18T13:24:10;101104.72;;;14.88;100.00
25560;BME280;13450;49.374;8.584;2023-02-18T13:26:37;101092.28;;;14.87;100.00
25560;BME280;13450;49.374;8.584;2023-02-18T13:36:51;101101.34;;;14.29;100.00
25560;BME280;13450;49.374;8.584;2023-02-18T13:50:13;101081.38;;;13.72;100.00
25560;BME280;13450;49.374;8.584;2023-02-18T14:00:35;101096.09;;;13.25;100.00
25560;BME280;13450;49.374;8.584;2023-02-18T14:08:14;101087.56;;;13.06;100.00
25560;BME280;13450;49.374;8.584;2023-02-18T14:13:55;101088.03;;;12.94;100.00
25560;BME280;13450;49.374;8.584;2023-02-18T14:19:40;101073.88;;;12.86;100.00
25560;BME280;13450;49.374;8.584;2023-02-18T14:27:36;101091.38;;;12.81;100.00
25560;BME280;13450;49.374;8.584;2023-02-18T14:32:46;101080.69;;;12.58;100.00
25560;BME280;13450;49.374;8.584;2023-02-18T14:35:34;101127.34;;;12.57;100.00
25560;BME280;13450;49.374;8.584;2023-02-18T14:49:56;101086.06;;;12.58;100.00
25560;BME280;13450;49.374;8.584;2023-02-18T14:52:33;101087.16;;;12.49;100.00
25560;BME280;13450;49.374;8.584;2023-02-18T14:55:04;101094.56;;;12.47;100.00
25560;BME280;13450;49.374;8.584;2023-02-18T14:57:52;101078.09;;;12.50;100.00
25560;BME280;13450;49.374;8.584;2023-02-18T15:00:24;101084.19;;;12.43;100.00
25560;BME280;13450;49.374;8.584;2023-02-18T15:02:53;101086.22;;;12.41;100.00
25560;BME280;13450;49.374;8.584;2023-02-18T15:05:22;101109.06;;;12.37;100.00
25560;BME280;13450;49.374;8.584;2023-02-18T15:08:05;101096.47;;;12.38;100.00
25560;BME280;13450;49.374;8.584;2023-02-18T15:10:45;101103.16;;;12.42;100.00
25560;BME280;13450;49.374;8.584;2023-02-18T15:13:23;101092.59;;;12.40;100.00
25560;BME280;13450;49.374;8.584;2023-02-18T15:15:55;101102.03;;;12.36;100.00
25560;BME280;13450;49.374;8.584;2023-02-18T15:20:53;101116.28;;;12.37;100.00
25560;BME280;13450;49.374;8.584;2023-02-18T15:23:19;101096.84;;;12.35;100.00
25560;BME280;13450;49.374;8.584;2023-02-18T15:25:49;101103.47;;;12.24;100.00
25560;BME280;13450;49.374;8.584;2023-02-18T15:28:22;101104.00;;;12.19;100.00
25560;BME280;13450;49.374;8.584;2023-02-18T15:30:50;101107.59;;;12.11;100.00
25560;BME280;13450;49.374;8.584;2023-02-18T15:33:19;101116.66;;;12.10;100.00
25560;BME280;13450;49.374;8.584;2023-02-18T15:35:45;101127.75;;;12.07;100.00
25560;BME280;13450;49.374;8.584;2023-02-18T15:38:20;101119.03;;;12.05;100.00
25560;BME280;13450;49.374;8.584;2023-02-18T15:40:49;101110.47;;;12.01;100.00
25560;BME280;13450;49.374;8.584;2023-02-18T15:43:20;101102.31;;;11.95;100.00
25560;BME280;13450;49.374;8.584;2023-02-18T15:45:46;101115.13;;;11.84;100.00
25560;BME280;13450;49.374;8.584;2023-02-18T15:48:35;101116.47;;;11.80;100.00
25560;BME280;13450;49.374;8.584;2023-02-18T15:51:09;101132.25;;;11.75;100.00
25560;BME280;13450;49.374;8.584;2023-02-18T15:53:39;101119.19;;;11.72;100.00
25560;BME280;13450;49.374;8.584;2023-02-18T15:56:12;101111.53;;;11.69;100.00
25560;BME280;13450;49.374;8.584;2023-02-18T15:58:39;101134.13;;;11.66;100.00
25560;BME280;13450;49.374;8.584;2023-02-18T16:01:26;101110.38;;;11.63;100.00
25560;BME280;13450;49.374;8.584;2023-02-18T16:03:57;101115.25;;;11.59;100.00
25560;BME280;13450;49.374;8.584;2023-02-18T16:06:26;101114.59;;;11.57;100.00
25560;BME280;13450;49.374;8.584;2023-02-18T16:08:59;101122.63;;;11.57;100.00
25560;BME280;13450;49.374;8.584;2023-02-18T16:11:27;101122.31;;;11.52;100.00
25560;BME280;13450;49.374;8.584;2023-02-18T16:13:55;101119.66;;;11.52;100.00
25560;BME280;13450;49.374;8.584;2023-02-18T16:16:35;101122.03;;;11.47;100.00
25560;BME280;13450;49.374;8.584;2023-02-18T16:19:02;101124.03;;;11.45;100.00
25560;BME280;13450;49.374;8.584;2023-02-18T16:21:43;101131.59;;;11.41;100.00
25560;BME280;13450;49.374;8.584;2023-02-18T16:24:26;101130.09;;;11.38;100.00
25560;BME280;13450;49.374;8.584;2023-02-18T16:26:53;101140.13;;;11.36;100.00
25560;BME280;13450;49.374;8.584;2023-02-18T16:29:34;101139.31;;;11.36;100.00
25560;BME280;13450;49.374;8.584;2023-02-18T16:32:00;101146.19;;;11.30;100.00
25560;BME280;13450;49.374;8.584;2023-02-18T16:34:26;101141.84;;;11.29;100.00
25560;BME280;13450;49.374;8.584;2023-02-18T16:36:52;101146.69;;;11.25;100.00
25560;BME280;13450;49.374;8.584;2023-02-18T16:39:36;101149.91;;;11.21;100.00
25560;BME280;13450;49.374;8.584;2023-02-18T16:42:09;101159.13;;;11.18;100.00
25560;BME280;13450;49.374;8.584;2023-02-18T16:44:35;101159.28;;;11.17;100.00
25560;BME280;13450;49.374;8.584;2023-02-18T16:47:04;101153.44;;;11.13;100.00
25560;BME280;13450;49.374;8.584;2023-02-18T16:49:30;101154.63;;;11.10;100.00
25560;BME280;13450;49.374;8.584;2023-02-18T16:52:00;101154.13;;;11.07;100.00
25560;BME280;13450;49.374;8.584;2023-02-18T16:54:26;101150.63;;;11.06;100.00
25560;BME280;13450;49.374;8.584;2023-02-18T16:56:53;101142.75;;;11.05;100.00
25560;BME280;13450;49.374;8.584;2023-02-18T16:59:18;101145.44;;;11.05;100.00
25560;BME280;13450;49.374;8.584;2023-02-18T17:01:44;101146.78;;;11.01;100.00
25560;BME280;13450;49.374;8.584;2023-02-18T17:04:13;101138.06;;;10.98;100.00
25560;BME280;13450;49.374;8.584;2023-02-18T17:06:39;101138.25;;;10.97;100.00
25560;BME280;13450;49.374;8.584;2023-02-18T17:09:13;101131.22;;;10.96;100.00